Time;durP1;ratioP1;P1;durP2;ratioP2;P2;SDS_P1;SDS_P2;PMS_P1;PMS_P2;Temp;Humidity;BMP_temperature;BMP_pressure;BME280_temperature;BME280_humidity;BME280_pressure;Samples;Min_cycle;Max_cycle;Signal;HPM_P1;HPM_P2
2022/07/18 00:00:35;;;;;;;4.40;3.05;;;;;;;13.02;67.24;101061.09;1686910;85;25476;-68
2022/07/18 00:03:03;;;;;;;4.67;2.95;;;;;;;13.02;67.24;101049.44;1686936;85;25956;-68
2022/07/18 00:05:29;;;;;;;4.35;2.83;;;;;;;13.01;67.41;101056.80;1686820;85;25487;-69
2022/07/18 00:07:55;;;;;;;7.80;3.30;;;;;;;12.97;67.75;101051.71;1686927;85;25592;-68
2022/07/18 00:10:22;;;;;;;5.42;2.90;;;;;;;12.94;67.37;101058.31;1686874;85;25636;-69
2022/07/18 00:12:48;;;;;;;3.85;2.75;;;;;;;12.92;67.51;101054.54;1686957;85;25408;-69
2022/07/18 00:15:15;;;;;;;3.52;2.80;;;;;;;12.87;67.59;101056.84;1686832;85;27312;-69
2022/07/18 00:17:41;;;;;;;4.10;2.60;;;;;;;12.86;67.69;101054.42;1686797;84;25583;-69
2022/07/18 00:20:10;;;;;;;7.58;3.05;;;;;;;12.84;67.86;101056.65;1686881;85;25565;-68
2022/07/18 00:22:36;;;;;;;5.20;3.20;;;;;;;12.82;68.11;101056.12;1687045;83;25618;-69
2022/07/18 00:25:05;;;;;;;4.80;2.75;;;;;;;12.79;68.02;101062.98;1681507;84;25623;-67
2022/07/18 00:27:32;;;;;;;4.05;2.83;;;;;;;12.76;67.78;101058.16;1687888;84;27329;-69
2022/07/18 00:29:58;;;;;;;6.05;3.17;;;;;;;12.72;68.05;101050.39;1687739;84;25645;-67
2022/07/18 00:32:24;;;;;;;4.15;2.98;;;;;;;12.71;67.88;101052.84;1687858;85;25591;-67
2022/07/18 00:34:50;;;;;;;4.85;3.20;;;;;;;12.67;68.03;101049.94;1687796;84;25676;-70
2022/07/18 00:37:19;;;;;;;4.35;2.95;;;;;;;12.65;67.96;101052.69;1686992;84;25507;-67
2022/07/18 00:39:45;;;;;;;5.58;3.17;;;;;;;12.62;68.10;101051.41;1687578;84;27323;-68
2022/07/18 00:42:11;;;;;;;4.80;2.90;;;;;;;12.59;68.36;101048.50;1680902;85;25407;-68
2022/07/18 00:44:37;;;;;;;4.58;3.12;;;;;;;12.58;68.36;101049.06;1687692;84;29725;-68
2022/07/18 00:47:03;;;;;;;4.72;2.98;;;;;;;12.57;68.52;101048.00;1687742;84;25619;-68
2022/07/18 00:49:31;;;;;;;7.70;3.08;;;;;;;12.56;68.78;101051.81;1680993;85;25420;-68
2022/07/18 00:51:57;;;;;;;3.95;3.10;;;;;;;12.53;68.76;101050.49;1687686;84;27546;-68
2022/07/18 00:54:25;;;;;;;4.53;3.12;;;;;;;12.50;68.89;101052.48;1680881;85;25563;-68
2022/07/18 00:56:52;;;;;;;3.58;3.05;;;;;;;12.48;69.08;101054.14;1680939;84;25571;-68
2022/07/18 00:59:19;;;;;;;5.70;3.00;;;;;;;12.46;69.06;101051.47;1687477;84;25714;-68
2022/07/18 01:01:47;;;;;;;5.80;3.42;;;;;;;12.44;68.58;101053.13;1687807;84;25458;-68
2022/07/18 01:04:18;;;;;;;5.97;3.20;;;;;;;12.42;68.34;101061.33;1680972;85;27314;-68
2022/07/18 01:06:46;;;;;;;4.70;3.00;;;;;;;12.39;68.75;101060.56;1687580;84;25461;-68
2022/07/18 01:09:14;;;;;;;3.92;3.12;;;;;;;12.34;68.96;101061.47;1680924;85;25658;-68
2022/07/18 01:11:41;;;;;;;4.65;3.00;;;;;;;12.28;69.02;101060.77;1687727;84;25671;-68
2022/07/18 01:14:08;;;;;;;5.85;2.87;;;;;;;12.24;69.48;101051.64;1687220;85;25649;-68
2022/07/18 01:16:35;;;;;;;5.70;3.42;;;;;;;12.23;69.28;101062.80;1685915;85;27301;-68
2022/07/18 01:19:02;;;;;;;5.00;2.92;;;;;;;12.20;69.20;101056.05;1680832;85;25420;-68
2022/07/18 01:21:29;;;;;;;4.28;3.00;;;;;;;12.19;69.31;101060.41;1687624;84;25432;-67
2022/07/18 01:23:55;;;;;;;4.62;3.17;;;;;;;12.18;69.48;101064.25;1677826;85;25756;-67
2022/07/18 01:26:22;;;;;;;8.20;3.58;;;;;;;12.16;69.67;101065.91;1683903;84;25472;-67
2022/07/18 01:28:49;;;;;;;4.05;2.83;;;;;;;12.13;69.68;101068.64;1676752;83;27981;-68
2022/07/18 01:31:15;;;;;;;5.50;3.30;;;;;;;12.12;69.61;101060.80;1676902;84;25648;-67
2022/07/18 01:33:43;;;;;;;5.08;3.30;;;;;;;12.11;69.64;101067.35;1677086;84;25556;-68
2022/07/18 01:36:09;;;;;;;4.40;3.00;;;;;;;12.08;70.22;101061.96;1680410;85;25615;-68
2022/07/18 01:38:36;;;;;;;4.10;2.77;;;;;;;12.05;70.04;101063.91;1683534;83;25641;-68
2022/07/18 01:41:04;;;;;;;7.50;3.30;;;;;;;12.02;70.18;101063.71;1676864;83;27330;-68
2022/07/18 01:43:31;;;;;;;7.85;3.55;;;;;;;12.01;70.50;101070.25;1683800;84;25411;-67
2022/07/18 01:45:57;;;;;;;6.17;3.50;;;;;;;11.96;70.31;101067.87;1694062;83;25436;-68
2022/07/18 01:48:24;;;;;;;6.60;3.47;;;;;;;11.93;70.55;101072.53;1683932;85;25779;-67
2022/07/18 01:50:52;;;;;;;8.98;3.27;;;;;;;11.90;70.31;101068.23;1654289;86;25463;-67
2022/07/18 01:53:18;;;;;;;6.05;3.33;;;;;;;11.88;70.28;101065.81;1683850;85;27331;-68
2022/07/18 01:55:45;;;;;;;3.72;3.08;;;;;;;11.85;70.48;101069.14;1686726;83;25610;-67
2022/07/18 01:58:11;;;;;;;5.00;3.35;;;;;;;11.82;70.40;101076.52;1683222;85;25556;-67
2022/07/18 02:00:37;;;;;;;3.55;3.22;;;;;;;11.79;70.67;101073.04;1676776;83;25564;-67
2022/07/18 02:03:03;;;;;;;5.50;3.33;;;;;;;11.76;70.74;101082.58;1683842;85;25407;-67
2022/07/18 02:05:29;;;;;;;5.60;3.72;;;;;;;11.73;71.01;101088.59;1676953;84;27589;-67
2022/07/18 02:07:55;;;;;;;6.83;3.25;;;;;;;11.69;71.31;101076.72;1683735;84;33158;-68
2022/07/18 02:10:22;;;;;;;4.75;3.52;;;;;;;11.69;71.24;101090.27;1694042;84;25566;-67
2022/07/18 02:12:48;;;;;;;5.50;3.45;;;;;;;11.68;71.03;101082.44;1683950;85;25621;-68
2022/07/18 02:15:16;;;;;;;8.83;4.12;;;;;;;11.66;71.15;101086.00;1684141;84;25627;-67
2022/07/18 02:17:43;;;;;;;5.25;3.37;;;;;;;11.64;70.95;101086.30;1653820;86;26971;-67
2022/07/18 02:20:12;;;;;;;4.65;3.80;;;;;;;11.64;71.61;101086.85;1686743;84;25583;-68
2022/07/18 02:22:39;;;;;;;7.05;3.67;;;;;;;11.63;71.72;101077.92;1685609;83;25603;-68
2022/07/18 02:25:07;;;;;;;3.72;3.37;;;;;;;11.62;71.75;101082.28;1712894;83;27895;-68
2022/07/18 02:27:34;;;;;;;5.28;3.42;;;;;;;11.57;71.68;101078.54;1713241;83;25589;-67
2022/07/18 02:30:00;;;;;;;5.30;3.75;;;;;;;11.54;71.42;101079.69;1713224;83;27517;-67
2022/07/18 02:32:26;;;;;;;7.75;3.47;;;;;;;11.50;71.67;101082.19;1713245;83;25867;-67
2022/07/18 02:34:52;;;;;;;6.03;3.67;;;;;;;11.47;71.31;101083.33;1713318;83;25614;-67
2022/07/18 02:37:18;;;;;;;6.53;3.80;;;;;;;11.43;71.76;101084.47;1713302;83;25694;-68
2022/07/18 02:39:45;;;;;;;6.50;4.28;;;;;;;11.42;72.11;101084.77;1713377;83;25576;-68
2022/07/18 02:42:11;;;;;;;8.15;4.78;;;;;;;11.40;72.30;101087.77;1713392;83;27322;-67
2022/07/18 02:44:37;;;;;;;7.92;4.20;;;;;;;11.42;72.77;101081.50;1713285;83;25681;-68
2022/07/18 02:47:04;;;;;;;4.50;4.10;;;;;;;11.44;72.82;101081.20;1713332;83;29565;-67
2022/07/18 02:49:31;;;;;;;5.00;3.70;;;;;;;11.45;72.76;101080.13;1713331;83;25658;-67
2022/07/18 02:52:03;;;;;;;4.33;3.65;;;;;;;11.46;72.93;101082.53;1713388;83;25723;-67
2022/07/18 02:54:33;;;;;;;6.22;3.60;;;;;;;11.47;72.68;101083.33;1713299;83;27316;-67
2022/07/18 02:56:59;;;;;;;5.78;3.87;;;;;;;11.47;72.69;101084.69;1713241;83;25779;-67
2022/07/18 02:59:27;;;;;;;6.47;3.60;;;;;;;11.47;72.70;101087.39;1713379;83;25608;-66
2022/07/18 03:01:55;;;;;;;6.08;3.25;;;;;;;11.46;72.79;101083.89;1713309;83;25600;-66
2022/07/18 03:04:22;;;;;;;6.62;3.75;;;;;;;11.45;72.75;101093.11;1713357;83;25471;-67
2022/07/18 03:06:50;;;;;;;5.65;3.70;;;;;;;11.45;72.71;101086.89;1713322;83;27317;-67
2022/07/18 03:09:18;;;;;;;6.28;3.90;;;;;;;11.46;73.13;101092.02;1713264;83;25640;-67
2022/07/18 03:11:44;;;;;;;5.78;3.65;;;;;;;11.46;73.08;101092.02;1713334;83;25618;-68
2022/07/18 03:14:11;;;;;;;5.22;3.87;;;;;;;11.47;73.12;101089.55;1713219;83;25670;-69
2022/07/18 03:16:38;;;;;;;5.85;4.37;;;;;;;11.47;73.17;101091.45;1681102;85;25493;-67
2022/07/18 03:19:04;;;;;;;5.67;3.20;;;;;;;11.48;73.28;101101.20;1713411;83;27355;-67
2022/07/18 03:21:31;;;;;;;4.33;3.37;;;;;;;11.47;73.12;101103.65;1713235;83;25496;-67
2022/07/18 03:23:57;;;;;;;6.80;4.55;;;;;;;11.45;72.90;101101.79;1697438;83;25652;-67
2022/07/18 03:26:23;;;;;;;6.20;4.55;;;;;;;11.44;72.94;101102.88;1676512;84;27776;-67
2022/07/18 03:28:50;;;;;;;8.13;4.55;;;;;;;11.42;73.21;101100.46;1676926;84;25702;-68
2022/07/18 03:31:16;;;;;;;7.30;4.30;;;;;;;11.43;73.47;101108.85;1675283;85;28269;-68
2022/07/18 03:33:42;;;;;;;5.15;4.00;;;;;;;11.43;73.44;101100.73;1676525;84;25580;-68
2022/07/18 03:36:09;;;;;;;13.53;4.62;;;;;;;11.44;73.65;101106.94;1676641;84;25471;-68
2022/07/18 03:38:42;;;;;;;12.80;4.70;;;;;;;11.45;73.76;101111.27;1676658;84;26200;-69
2022/07/18 03:41:06;;;;;;;5.45;4.17;;;;;;;11.49;74.00;101113.63;1676349;84;25479;-69
2022/07/18 03:43:32;;;;;;;7.70;4.35;;;;;;;11.52;74.07;101113.05;1676546;84;27947;-69
2022/07/18 03:45:58;;;;;;;5.60;4.53;;;;;;;11.55;74.33;101110.55;1676456;84;25619;-69
2022/07/18 03:48:25;;;;;;;6.45;4.35;;;;;;;11.59;74.47;101106.70;1676705;84;25477;-69
2022/07/18 03:50:51;;;;;;;6.80;4.47;;;;;;;11.63;74.45;101110.97;1676609;84;25728;-69
2022/07/18 03:53:17;;;;;;;6.28;4.70;;;;;;;11.69;74.62;101109.80;1676657;84;25580;-69
2022/07/18 03:55:44;;;;;;;9.13;4.83;;;;;;;11.73;74.61;101110.80;1676621;84;27464;-69
2022/07/18 03:58:10;;;;;;;7.60;4.37;;;;;;;11.80;74.75;101115.84;1676478;84;25477;-69
2022/07/18 04:00:37;;;;;;;4.95;4.45;;;;;;;11.88;75.02;101111.10;1676569;84;25666;-69
2022/07/18 04:03:03;;;;;;;11.93;5.33;;;;;;;11.94;74.99;101113.46;1676595;84;25845;-69
2022/07/18 04:05:30;;;;;;;8.80;4.78;;;;;;;12.05;75.38;101111.92;1676599;85;25578;-69
2022/07/18 04:07:56;;;;;;;5.20;4.30;;;;;;;12.14;75.40;101118.28;1676596;84;26869;-68
2022/07/18 04:10:22;;;;;;;7.72;5.12;;;;;;;12.25;75.45;101118.33;1676569;84;25426;-68
2022/07/18 04:12:54;;;;;;;9.35;5.15;;;;;;;12.36;75.67;101122.20;1676570;84;25468;-68
2022/07/18 04:15:24;;;;;;;9.40;5.40;;;;;;;12.48;75.54;101123.86;1676568;84;25639;-68
2022/07/18 04:17:52;;;;;;;6.42;4.45;;;;;;;12.60;75.43;101119.29;1676757;84;25484;-67
2022/07/18 04:20:20;;;;;;;7.65;4.75;;;;;;;12.71;75.40;101118.78;1676608;84;27318;-68
2022/07/18 04:22:54;;;;;;;4.90;4.05;;;;;;;12.81;75.33;101114.27;1676608;84;25444;-68
2022/07/18 04:25:23;;;;;;;6.62;4.78;;;;;;;12.92;75.41;101114.84;1691577;84;25560;-68
2022/07/18 04:27:50;;;;;;;9.28;4.75;;;;;;;13.02;75.22;101116.77;1681966;84;25640;-67
2022/07/18 04:30:19;;;;;;;9.48;4.92;;;;;;;13.12;75.10;101112.23;1693580;84;25557;-67
2022/07/18 04:32:46;;;;;;;6.12;4.40;;;;;;;13.21;74.90;101113.11;1693489;84;27428;-67
2022/07/18 04:35:12;;;;;;;10.75;4.45;;;;;;;13.29;74.88;101111.02;1688393;83;25554;-67
2022/07/18 04:37:39;;;;;;;7.53;4.30;;;;;;;13.38;74.83;101102.44;1686887;85;25560;-67
2022/07/18 04:40:09;;;;;;;10.98;5.00;;;;;;;13.48;74.72;101106.01;1686842;85;25667;-67
2022/07/18 04:42:36;;;;;;;;;;;;;;;13.56;74.49;101104.70;1689410;85;25625;-67
2022/07/18 04:45:04;;;;;;;9.05;4.30;;;;;;;13.63;74.46;101106.99;1686924;83;27331;-67
2022/07/18 04:47:31;;;;;;;6.80;4.20;;;;;;;13.70;74.36;101111.43;1687020;85;25733;-67
2022/07/18 04:49:57;;;;;;;6.78;3.90;;;;;;;13.79;74.35;101101.97;1686856;85;25479;-68
2022/07/18 04:52:24;;;;;;;12.03;4.75;;;;;;;13.86;74.01;101104.25;1676613;85;25680;-68
2022/07/18 04:54:50;;;;;;;8.40;4.12;;;;;;;13.92;73.57;101105.17;1686852;85;25657;-68
2022/07/18 04:57:18;;;;;;;9.08;3.87;;;;;;;14.00;73.74;101109.06;1686879;85;27327;-68
2022/07/18 04:59:46;;;;;;;5.25;3.80;;;;;;;14.08;73.30;101111.03;1686787;85;25716;-68
2022/07/18 05:02:13;;;;;;;8.53;3.40;;;;;;;14.18;73.47;101107.21;1686839;83;25561;-68
2022/07/18 05:04:39;;;;;;;5.05;3.65;;;;;;;14.27;73.16;101109.97;1686813;85;25653;-68
2022/07/18 05:07:06;;;;;;;20.37;10.38;;;;;;;14.37;72.89;101113.23;1686839;84;25571;-68
2022/07/18 05:09:33;;;;;;;8.23;4.85;;;;;;;14.48;72.88;101113.73;1686836;85;27332;-68
2022/07/18 05:11:59;;;;;;;9.65;3.55;;;;;;;14.60;72.71;101111.02;1686790;85;25432;-68
2022/07/18 05:14:25;;;;;;;6.50;3.25;;;;;;;14.71;72.34;101116.39;1686812;85;25625;-69
2022/07/18 05:16:51;;;;;;;8.23;3.08;;;;;;;14.85;72.48;101121.16;1686798;85;25643;-68
2022/07/18 05:19:17;;;;;;;14.28;3.72;;;;;;;14.98;72.56;101120.77;1686866;85;25590;-68
2022/07/18 05:21:44;;;;;;;6.12;3.40;;;;;;;15.13;72.12;101116.78;1686793;85;27391;-68
2022/07/18 05:24:13;;;;;;;6.05;3.37;;;;;;;15.26;71.63;101119.13;1685692;84;25663;-68
2022/07/18 05:26:39;;;;;;;6.67;2.70;;;;;;;15.38;71.09;101117.92;1680489;84;25582;-68
2022/07/18 05:29:05;;;;;;;5.33;2.67;;;;;;;15.49;70.45;101117.84;1680893;85;25633;-68
2022/07/18 05:31:32;;;;;;;6.58;3.30;;;;;;;15.62;70.40;101117.98;1681647;84;25399;-68
2022/07/18 05:33:58;;;;;;;7.78;3.00;;;;;;;15.75;70.62;101118.91;1680714;85;26861;-68
2022/07/18 05:36:24;;;;;;;4.72;2.85;;;;;;;15.90;70.27;101119.79;1680771;84;25633;-68
2022/07/18 05:38:51;;;;;;;3.77;2.52;;;;;;;16.04;69.64;101125.08;1680912;85;25573;-68
2022/07/18 05:41:17;;;;;;;4.08;2.47;;;;;;;16.21;69.41;101123.64;1680597;85;25572;-68
2022/07/18 05:43:43;;;;;;;4.15;2.40;;;;;;;16.38;68.66;101109.70;1680956;84;25582;-69
2022/07/18 05:46:09;;;;;;;9.25;2.80;;;;;;;16.54;68.49;101111.30;1681082;85;27340;-69
2022/07/18 05:48:35;;;;;;;7.65;2.30;;;;;;;16.72;67.06;101120.17;1680983;84;25636;-69
2022/07/18 05:51:02;;;;;;;8.10;3.90;;;;;;;16.83;66.68;101117.88;1680893;84;25646;-68
2022/07/18 05:53:29;;;;;;;5.28;2.70;;;;;;;16.97;66.79;101118.45;1680920;85;25610;-68
2022/07/18 05:55:55;;;;;;;4.00;2.30;;;;;;;17.13;65.96;101117.31;1680932;85;25685;-69
2022/07/18 05:58:23;;;;;;;3.83;2.20;;;;;;;17.30;66.25;101119.11;1680900;85;27401;-69
2022/07/18 06:00:49;;;;;;;5.28;2.50;;;;;;;17.55;66.29;101124.09;1680654;85;25413;-69
2022/07/18 06:03:16;;;;;;;6.25;2.60;;;;;;;17.76;64.97;101124.06;1680903;85;25412;-69
2022/07/18 06:05:43;;;;;;;8.63;2.45;;;;;;;17.96;65.06;101121.05;1680841;85;26221;-69
2022/07/18 06:08:11;;;;;;;5.72;2.37;;;;;;;18.17;63.69;101119.62;1680971;85;25469;-69
2022/07/18 06:10:37;;;;;;;6.12;2.60;;;;;;;18.34;63.70;101114.50;1681038;84;27407;-68
2022/07/18 06:13:03;;;;;;;4.15;2.08;;;;;;;18.57;63.39;101116.20;1680946;85;25828;-68
2022/07/18 06:15:30;;;;;;;5.05;1.90;;;;;;;18.82;62.75;101119.75;1680120;85;25598;-68
2022/07/18 06:17:56;;;;;;;7.37;2.02;;;;;;;19.05;62.83;101120.61;1680880;84;25673;-68
2022/07/18 06:20:25;;;;;;;4.03;2.02;;;;;;;19.30;61.84;101117.23;1680985;85;25512;-68
2022/07/18 06:22:51;;;;;;;8.80;2.30;;;;;;;19.51;61.38;101114.86;1681026;85;27412;-68
2022/07/18 06:25:18;;;;;;;5.97;1.90;;;;;;;19.68;60.15;101114.57;1678429;85;25494;-68
2022/07/18 06:27:44;;;;;;;8.05;2.33;;;;;;;19.82;60.49;101117.48;1677270;84;25638;-68
2022/07/18 06:30:12;;;;;;;8.28;2.62;;;;;;;20.07;60.69;101117.55;1677129;85;25805;-68
2022/07/18 06:32:39;;;;;;;7.97;3.15;;;;;;;20.29;59.49;101118.87;1677370;84;25569;-68
2022/07/18 06:35:08;;;;;;;6.20;2.10;;;;;;;20.49;59.43;101121.13;1676769;85;26845;-68
2022/07/18 06:37:35;;;;;;;6.83;2.42;;;;;;;20.68;58.63;101118.25;1677311;84;25452;-68
2022/07/18 06:40:02;;;;;;;4.08;1.90;;;;;;;20.76;57.37;101115.89;1676826;85;25397;-69
2022/07/18 06:42:29;;;;;;;4.17;1.95;;;;;;;20.94;57.50;101115.48;1677334;84;25621;-69
2022/07/18 06:44:55;;;;;;;7.37;2.05;;;;;;;21.12;57.29;101113.12;1676823;85;25592;-69
2022/07/18 06:47:21;;;;;;;5.12;2.10;;;;;;;21.25;56.16;101114.58;1676959;85;27307;-69
2022/07/18 06:49:47;;;;;;;5.28;2.20;;;;;;;21.35;55.53;101125.56;1677219;84;25539;-69
2022/07/18 06:52:15;;;;;;;3.80;2.05;;;;;;;21.33;55.11;101112.75;1677775;84;25599;-69
2022/07/18 06:54:42;;;;;;;6.22;2.85;;;;;;;21.43;55.34;101116.30;1677681;84;25693;-69
2022/07/18 06:57:09;;;;;;;7.10;3.50;;;;;;;21.58;55.30;101109.94;1677323;84;25414;-69
2022/07/18 06:59:36;;;;;;;6.12;2.58;;;;;;;21.77;55.39;101105.56;1677977;84;27331;-69
2022/07/18 07:02:04;;;;;;;6.17;2.62;;;;;;;22.01;54.72;101105.78;1676926;84;25615;-69
2022/07/18 07:04:30;;;;;;;7.70;2.08;;;;;;;22.24;54.35;101107.16;1676844;85;25627;-68
2022/07/18 07:06:56;;;;;;;9.33;2.10;;;;;;;22.52;53.94;101095.80;1677010;84;26404;-69
2022/07/18 07:09:22;;;;;;;3.52;1.85;;;;;;;22.72;53.66;101099.23;1676967;85;25438;-69
2022/07/18 07:11:48;;;;;;;7.30;2.10;;;;;;;22.90;53.00;101101.44;1683876;84;27422;-69
2022/07/18 07:14:14;;;;;;;5.55;2.42;;;;;;;22.93;51.47;101099.31;1676671;83;25417;-69
2022/07/18 07:16:40;;;;;;;7.42;2.60;;;;;;;22.74;51.20;101104.38;1683768;84;25496;-69
2022/07/18 07:19:06;;;;;;;4.10;1.92;;;;;;;22.75;51.50;101110.12;1654592;86;25713;-69
2022/07/18 07:21:32;;;;;;;7.10;2.60;;;;;;;22.70;51.21;101108.47;1683847;85;25413;-68
2022/07/18 07:23:58;;;;;;;3.85;2.33;;;;;;;22.66;51.01;101106.82;1676934;84;27414;-69
2022/07/18 07:26:24;;;;;;;6.35;2.25;;;;;;;22.63;50.56;101104.80;1707882;82;25736;-69
2022/07/18 07:28:50;;;;;;;13.78;5.72;;;;;;;22.64;50.96;101106.41;1713347;83;25605;-69
2022/07/18 07:31:16;;;;;;;10.38;2.87;;;;;;;22.70;50.80;101107.69;1713271;83;25675;-69
2022/07/18 07:33:44;;;;;;;6.45;2.75;;;;;;;22.74;50.69;101107.92;1713331;83;25399;-69
2022/07/18 07:36:11;;;;;;;9.68;3.10;;;;;;;23.02;50.87;101099.84;1713297;83;27320;-69
2022/07/18 07:38:37;;;;;;;7.78;2.02;;;;;;;23.41;51.44;101109.22;1713246;83;25711;-69
2022/07/18 07:41:03;;;;;;;9.95;2.60;;;;;;;23.88;49.93;101102.80;1713341;83;25612;-69
2022/07/18 07:43:29;;;;;;;7.28;2.55;;;;;;;24.17;49.85;101105.22;1713288;83;25655;-69
2022/07/18 07:45:56;;;;;;;6.20;2.12;;;;;;;24.44;49.07;101111.95;1713341;83;25243;-69
2022/07/18 07:48:23;;;;;;;4.55;2.35;;;;;;;24.48;48.09;101103.67;1713354;83;27724;-69
2022/07/18 07:50:53;;;;;;;6.28;2.60;;;;;;;24.47;46.89;101117.28;1713241;83;25696;-69
2022/07/18 07:53:19;;;;;;;9.33;2.05;;;;;;;24.34;46.60;101118.19;1713342;83;25575;-69
2022/07/18 07:55:46;;;;;;;6.25;2.02;;;;;;;24.37;46.91;101110.52;1713377;83;25608;-69
2022/07/18 07:58:12;;;;;;;9.20;2.35;;;;;;;24.59;47.61;101115.64;1713391;83;25703;-69
2022/07/18 08:00:38;;;;;;;6.53;2.22;;;;;;;24.95;47.42;101118.61;1713364;83;27277;-69
2022/07/18 08:03:07;;;;;;;6.00;2.30;;;;;;;25.13;46.28;101114.52;1713261;83;25606;-69
2022/07/18 08:05:37;;;;;;;5.33;2.20;;;;;;;25.20;46.27;101113.19;1713454;83;25612;-69
2022/07/18 08:08:05;;;;;;;6.05;2.27;;;;;;;25.34;46.00;101116.62;1680904;85;25683;-69
2022/07/18 08:10:33;;;;;;;6.20;2.47;;;;;;;25.62;45.72;101113.12;1713479;83;25424;-69
2022/07/18 08:12:59;;;;;;;5.20;2.22;;;;;;;26.00;45.72;101111.41;1713346;83;27436;-69
2022/07/18 08:15:26;;;;;;;9.50;2.37;;;;;;;26.47;45.17;101111.58;1713249;83;25677;-69
2022/07/18 08:17:52;;;;;;;7.42;2.12;;;;;;;26.79;44.22;101105.20;1713403;83;25505;-69
2022/07/18 08:20:19;;;;;;;6.10;2.50;;;;;;;26.94;42.88;101099.62;1713369;83;25702;-68
2022/07/18 08:23:05;;;;;;;3.50;2.40;;;;;;;26.84;42.14;101111.73;1713401;83;25591;-69
2022/07/18 08:25:36;;;;;;;4.60;2.37;;;;;;;26.61;41.35;101103.86;1680376;84;27373;-68
2022/07/18 08:28:05;;;;;;;4.47;2.52;;;;;;;26.67;42.88;101113.97;1696671;84;25618;-68
2022/07/18 08:30:34;;;;;;;5.78;3.12;;;;;;;26.90;42.37;101112.13;1696755;84;25404;-69
2022/07/18 08:33:01;;;;;;;4.28;2.52;;;;;;;26.83;42.11;101102.42;1694145;84;25683;-69
2022/07/18 08:35:29;;;;;;;7.12;3.40;;;;;;;27.00;42.02;101102.16;1698672;83;25400;-69
2022/07/18 08:37:55;;;;;;;5.15;2.85;;;;;;;27.11;40.79;101098.75;1713499;83;28036;-69
2022/07/18 08:40:21;;;;;;;6.17;3.25;;;;;;;27.14;41.49;101099.34;1713304;83;25573;-69
2022/07/18 08:42:54;;;;;;;5.05;3.00;;;;;;;27.47;40.92;101094.43;1713365;83;25534;-69
2022/07/18 08:45:23;;;;;;;6.95;3.40;;;;;;;27.61;40.83;101097.71;1713463;83;25682;-69
2022/07/18 08:47:51;;;;;;;7.78;3.02;;;;;;;27.36;40.13;101100.63;1713781;83;25560;-69
2022/07/18 08:50:19;;;;;;;5.97;3.10;;;;;;;27.28;40.18;101094.34;1713955;83;26861;-69
2022/07/18 08:52:46;;;;;;;7.58;2.77;;;;;;;27.13;40.38;101099.74;1713647;83;25767;-69
2022/07/18 08:55:14;;;;;;;8.45;3.12;;;;;;;27.12;40.75;101096.77;1680827;85;25594;-69
2022/07/18 08:57:40;;;;;;;5.97;3.30;;;;;;;27.02;40.29;101101.97;1713684;83;26407;-69
2022/07/18 09:00:10;;;;;;;6.00;2.80;;;;;;;26.73;40.47;101092.95;1713370;83;25633;-68
2022/07/18 09:02:36;;;;;;;6.85;2.55;;;;;;;26.71;40.86;101093.93;1713293;83;27322;-69
2022/07/18 09:05:05;;;;;;;4.35;2.67;;;;;;;26.89;41.66;101083.39;1713177;83;25753;-69
2022/07/18 09:07:37;;;;;;;6.47;2.75;;;;;;;27.21;41.09;101091.58;1713193;83;25860;-69
2022/07/18 09:10:07;;;;;;;8.85;2.98;;;;;;;27.06;40.28;101092.84;1713226;83;25635;-68
2022/07/18 09:12:34;;;;;;;4.55;2.42;;;;;;;27.26;40.64;101097.28;1680894;85;25650;-68
2022/07/18 09:15:15;;;;;;;3.58;2.25;;;;;;;27.32;40.46;101083.99;1690591;83;28081;-68
2022/07/18 09:17:41;;;;;;;4.50;2.00;;;;;;;27.35;39.50;101090.13;1713096;83;25421;-69
2022/07/18 09:20:14;;;;;;;5.45;2.52;;;;;;;27.14;39.03;101083.27;1680394;85;25659;-69
2022/07/18 09:22:47;;;;;;;6.28;2.65;;;;;;;26.78;40.06;101082.02;1713456;83;25691;-69
2022/07/18 09:25:21;;;;;;;4.00;2.15;;;;;;;26.59;40.16;101088.19;1713177;83;25587;-69
2022/07/18 09:27:51;;;;;;;4.92;1.95;;;;;;;26.82;40.75;101080.83;1713258;83;27389;-69
2022/07/18 09:30:24;;;;;;;5.35;2.12;;;;;;;27.25;40.03;101086.78;1680601;85;25431;-68
2022/07/18 09:33:05;;;;;;;5.25;2.60;;;;;;;27.42;40.41;101080.97;1713285;83;25587;-69
2022/07/18 09:35:46;;;;;;;6.85;2.30;;;;;;;28.07;40.93;101086.08;1713181;83;25691;-69
2022/07/18 09:38:16;;;;;;;6.28;2.27;;;;;;;28.54;39.80;101071.70;1713261;83;25576;-69
2022/07/18 09:40:47;;;;;;;4.90;2.58;;;;;;;28.34;38.00;101080.66;1713301;83;27460;-69
2022/07/18 09:43:17;;;;;;;5.62;2.45;;;;;;;28.08;38.51;101082.89;1713142;83;25590;-69
2022/07/18 09:45:57;;;;;;;6.35;2.12;;;;;;;28.14;37.23;101080.45;1713211;83;25561;-69
2022/07/18 09:48:25;;;;;;;2.90;1.80;;;;;;;27.55;38.30;101074.35;1712398;83;25634;-69
2022/07/18 09:51:03;;;;;;;3.75;2.10;;;;;;;27.21;38.63;101073.53;1712310;83;25403;-69
2022/07/18 09:53:42;;;;;;;4.28;2.45;;;;;;;26.89;38.41;101073.67;1680976;85;28058;-68
2022/07/18 09:56:15;;;;;;;4.55;1.80;;;;;;;26.68;39.79;101077.30;1713266;83;25680;-69
2022/07/18 09:58:55;;;;;;;5.10;2.20;;;;;;;26.78;40.47;101073.12;1712081;83;25586;-69
2022/07/18 10:01:23;;;;;;;9.40;2.45;;;;;;;27.26;39.99;101071.72;1713184;83;25626;-69
2022/07/18 10:03:51;;;;;;;3.17;2.00;;;;;;;27.35;39.85;101072.69;1713343;83;25411;-69
2022/07/18 10:06:18;;;;;;;2.58;1.95;;;;;;;27.37;38.97;101081.39;1713231;83;27334;-69
2022/07/18 10:08:45;;;;;;;2.80;1.82;;;;;;;27.40;39.96;101076.42;1713167;83;25637;-69
2022/07/18 10:11:11;;;;;;;3.45;1.90;;;;;;;27.86;38.99;101072.52;1713212;83;26118;-68
2022/07/18 10:13:38;;;;;;;5.08;2.10;;;;;;;28.00;38.31;101082.77;1713224;83;25634;-69
2022/07/18 10:16:08;;;;;;;5.03;2.20;;;;;;;28.13;39.69;101074.11;1713228;83;25644;-68
2022/07/18 10:18:38;;;;;;;5.22;2.00;;;;;;;28.78;38.15;101074.85;1713239;83;27410;-68
2022/07/18 10:21:10;;;;;;;2.45;1.80;;;;;;;28.53;37.87;101077.10;1713180;83;25622;-69
2022/07/18 10:23:46;;;;;;;6.08;1.77;;;;;;;28.84;37.09;101076.56;1713281;83;25459;-68
2022/07/18 10:26:25;;;;;;;3.40;2.37;;;;;;;28.96;36.80;101069.08;1713114;83;25635;-69
2022/07/18 10:29:03;;;;;;;2.62;2.12;;;;;;;29.54;37.43;101074.66;1638121;87;25658;-69
2022/07/18 10:31:33;;;;;;;3.50;1.98;;;;;;;30.46;37.40;101068.56;1637991;87;27345;-69
2022/07/18 10:34:10;;;;;;;7.55;1.85;;;;;;;31.07;35.50;101062.58;1637170;87;25713;-69
2022/07/18 10:37:01;;;;;;;3.60;2.15;;;;;;;30.76;33.99;101070.98;1637846;87;25584;-69
2022/07/18 10:39:39;;;;;;;3.37;1.75;;;;;;;30.35;34.63;101073.74;1637669;87;25662;-69
2022/07/18 10:42:13;;;;;;;4.60;2.40;;;;;;;30.47;34.63;101082.09;1637896;87;25632;-68
2022/07/18 10:44:40;;;;;;;7.15;1.90;;;;;;;30.29;33.59;101076.84;1637981;87;27422;-68
2022/07/18 10:47:24;;;;;;;3.37;2.00;;;;;;;29.98;34.17;101074.77;1637862;87;25726;-69
2022/07/18 10:49:56;;;;;;;5.00;1.95;;;;;;;29.85;34.43;101077.98;1638010;87;25716;-69
2022/07/18 10:52:36;;;;;;;3.70;2.15;;;;;;;29.99;34.87;101073.58;1637761;87;25837;-68
2022/07/18 10:55:17;;;;;;;3.33;1.82;;;;;;;30.15;34.25;101076.48;1638140;87;25559;-69
2022/07/18 10:57:52;;;;;;;2.05;1.82;;;;;;;29.56;33.12;101066.67;1636624;87;27331;-69
2022/07/18 11:00:35;;;;;;;3.42;2.02;;;;;;;29.18;33.90;101069.58;1623501;87;25514;-69
2022/07/18 11:03:09;;;;;;;2.70;2.08;;;;;;;28.81;34.44;101062.08;1638077;86;25671;-69
2022/07/18 11:05:51;;;;;;;4.35;2.22;;;;;;;28.56;34.49;101059.00;1649612;85;26540;-69
2022/07/18 11:08:20;;;;;;;5.30;2.17;;;;;;;28.16;34.72;101068.92;1704899;83;25595;-69
2022/07/18 11:10:54;;;;;;;3.05;1.85;;;;;;;27.76;35.55;101062.28;1713487;83;27404;-69
2022/07/18 11:13:28;;;;;;;3.67;2.45;;;;;;;27.47;36.05;101061.09;1713198;83;27177;-70
2022/07/18 11:16:23;;;;;;;2.95;2.15;;;;;;;27.36;37.14;101054.23;1681079;84;25409;-68
2022/07/18 11:18:55;;;;;;;4.90;2.08;;;;;;;27.35;37.13;101054.63;1712771;83;25724;-68
2022/07/18 11:21:34;;;;;;;3.02;2.12;;;;;;;27.30;37.14;101054.45;1713390;83;25469;-69
2022/07/18 11:24:08;;;;;;;4.10;2.58;;;;;;;27.20;37.12;101052.50;1638007;87;28022;-69
2022/07/18 11:26:46;;;;;;;3.80;2.37;;;;;;;27.06;37.05;101050.59;1637149;87;25564;-69
2022/07/18 11:29:17;;;;;;;3.45;2.22;;;;;;;26.80;37.11;101050.49;1642046;86;25536;-69